Time,TemperatureF,DewpointF,PressureIn,WindDirection,WindDirectionDegrees,WindSpeedMPH,WindSpeedGustMPH,Humidity,HourlyPrecipIn,Conditions,Clouds,dailyrainin,SolarRadiationWatts/m^2,SoftwareType,DateUTC
2013-06-27 00:05:00,63.4,57.1,30.19,WNW,290,0.0,1.0,80,0.00,,,0.00,0,Wunderground v.1.15,2013-06-26 22:05:00,
2013-06-27 00:15:00,63.1,56.8,30.20,WNW,290,1.0,1.0,80,0.00,,,0.00,0,Wunderground v.1.15,2013-06-26 22:15:00,
2013-06-27 00:30:00,62.8,56.9,30.19,WNW,290,1.0,1.0,81,0.00,,,0.00,0,Wunderground v.1.15,2013-06-26 22:30:00,
2013-06-27 00:40:00,62.6,56.7,30.19,West,272,3.0,4.0,81,0.00,,,0.00,0,Wunderground v.1.15,2013-06-26 22:40:00,
2013-06-27 00:55:00,62.5,56.9,30.19,WNW,296,3.0,3.0,82,0.00,,,0.00,0,Wunderground v.1.15,2013-06-26 22:55:00,
2013-06-27 01:05:00,62.4,56.8,30.19,WNW,286,2.0,2.0,82,0.00,,,0.00,0,Wunderground v.1.15,2013-06-26 23:05:00,
2013-06-27 01:20:00,62.2,56.6,30.19,WNW,286,1.0,1.0,82,0.00,,,0.00,0,Wunderground v.1.15,2013-06-26 23:20:00,
2013-06-27 01:35:00,61.8,55.9,30.19,West,271,1.0,1.0,81,0.00,,,0.00,0,Wunderground v.1.15,2013-06-26 23:35:00,
2013-06-27 01:45:00,61.1,55.2,30.19,West,274,2.0,2.0,81,0.00,,,0.00,0,Wunderground v.1.15,2013-06-26 23:45:00,
2013-06-27 01:55:00,60.6,54.4,30.18,West,273,2.0,3.0,80,0.00,,,0.00,0,Wunderground v.1.15,2013-06-26 23:55:00,
2013-06-27 02:05:00,60.0,53.1,30.18,West,273,2.0,2.0,78,0.00,,,0.00,0,Wunderground v.1.15,2013-06-27 00:05:00,
2013-06-27 02:10:00,60.0,52.8,30.18,West,273,1.0,2.0,77,0.00,,,0.00,0,Wunderground v.1.15,2013-06-27 00:10:00,
2013-06-27 02:25:00,59.7,51.8,30.18,West,273,0.0,0.0,75,0.00,,,0.00,0,Wunderground v.1.15,2013-06-27 00:25:00,
2013-06-27 02:35:00,59.0,50.4,30.18,West,273,1.0,1.0,73,0.00,,,0.00,0,Wunderground v.1.15,2013-06-27 00:35:00,
2013-06-27 02:50:00,59.0,48.8,30.18,West,273,1.0,1.0,69,0.00,,,0.00,0,Wunderground v.1.15,2013-06-27 00:50:00,
2013-06-27 03:05:00,59.0,47.2,30.17,West,273,2.0,4.0,65,0.00,,,0.00,0,Wunderground v.1.15,2013-06-27 01:05:00,
2013-06-27 03:15:00,59.4,46.8,30.17,West,273,2.0,2.0,63,0.00,,,0.00,0,Wunderground v.1.15,2013-06-27 01:15:00,
2013-06-27 03:30:00,59.9,48.9,30.17,West,273,0.0,0.0,67,0.00,,,0.00,0,Wunderground v.1.15,2013-06-27 01:30:00,
2013-06-27 03:45:00,59.0,46.8,30.17,West,273,1.0,1.0,64,0.00,,,0.00,0,Wunderground v.1.15,2013-06-27 01:45:00,
2013-06-27 03:55:00,59.0,46.4,30.17,West,273,2.0,2.0,63,0.00,,,0.00,0,Wunderground v.1.15,2013-06-27 01:55:00,
2013-06-27 04:10:00,58.8,46.6,30.17,West,273,1.0,1.0,64,0.00,,,0.00,0,Wunderground v.1.15,2013-06-27 02:10:00,
2013-06-27 04:20:00,59.0,46.8,30.17,NNE,17,1.0,1.0,64,0.00,,,0.00,0,Wunderground v.1.15,2013-06-27 02:20:00,
2013-06-27 04:35:00,59.0,46.8,30.16,NNE,15,0.0,0.0,64,0.00,,,0.00,0,Wunderground v.1.15,2013-06-27 02:35:00,
2013-06-27 04:41:00,59.0,46.8,30.16,NNE,16,0.0,0.0,64,0.00,,,0.00,0,Wunderground v.1.15,2013-06-27 02:41:00,
2013-06-27 04:50:00,59.0,47.2,30.16,NNE,16,0.0,0.0,65,0.00,,,0.00,0,Wunderground v.1.15,2013-06-27 02:50:00,
2013-06-27 04:55:00,59.0,47.2,30.16,NNE,16,0.0,0.0,65,0.00,,,0.00,0,Wunderground v.1.15,2013-06-27 02:55:00,
2013-06-27 05:05:00,58.7,47.0,30.16,NNE,16,1.0,1.0,65,0.00,,,0.00,0,Wunderground v.1.15,2013-06-27 03:05:00,
2013-06-27 05:11:00,58.7,47.0,30.16,NNE,15,1.0,1.0,65,0.00,,,0.00,0,Wunderground v.1.15,2013-06-27 03:11:00,
2013-06-27 05:20:00,58.5,47.2,30.16,NNE,15,0.0,1.0,66,0.00,,,0.00,0,Wunderground v.1.15,2013-06-27 03:20:00,
2013-06-27 05:30:00,58.5,47.2,30.16,NNE,15,0.0,1.0,66,0.00,,,0.00,0,Wunderground v.1.15,2013-06-27 03:30:00,
2013-06-27 05:40:00,58.6,46.9,30.16,NNE,15,0.0,0.0,65,0.00,,,0.00,0,Wunderground v.1.15,2013-06-27 03:40:00,
2013-06-27 05:55:00,58.8,47.1,30.16,NNE,16,1.0,2.0,65,0.00,,,0.00,0,Wunderground v.1.15,2013-06-27 03:55:00,
2013-06-27 06:10:00,59.0,46.8,30.16,WNW,294,1.0,1.0,64,0.00,,,0.00,0,Wunderground v.1.15,2013-06-27 04:10:00,
2013-06-27 06:15:00,59.0,46.4,30.16,WNW,294,2.0,2.0,63,0.00,,,0.00,0,Wunderground v.1.15,2013-06-27 04:15:00,
2013-06-27 06:20:00,59.2,46.6,30.16,WNW,294,1.0,1.0,63,0.00,,,0.00,0,Wunderground v.1.15,2013-06-27 04:20:00,
2013-06-27 06:25:00,59.3,46.7,30.17,WNW,294,0.0,1.0,63,0.00,,,0.00,0,Wunderground v.1.15,2013-06-27 04:25:00,
2013-06-27 06:35:00,59.3,46.7,30.17,WNW,294,1.0,1.0,63,0.00,,,0.00,9,Wunderground v.1.15,2013-06-27 04:35:00,
2013-06-27 06:45:00,59.2,47.0,30.17,WNW,295,0.0,0.0,64,0.00,,,0.00,16,Wunderground v.1.15,2013-06-27 04:45:00,
2013-06-27 06:50:00,59.2,47.0,30.17,WNW,295,0.0,0.0,64,0.00,,,0.00,23,Wunderground v.1.15,2013-06-27 04:50:00,
2013-06-27 06:55:00,59.2,47.4,30.17,WNW,295,0.0,0.0,65,0.00,,,0.00,28,Wunderground v.1.15,2013-06-27 04:55:00,
2013-06-27 07:10:00,59.5,48.1,30.17,WNW,295,0.0,0.0,66,0.00,,,0.00,49,Wunderground v.1.15,2013-06-27 05:10:00,
2013-06-27 07:20:00,60.0,49.0,30.17,WNW,295,1.0,3.0,67,0.00,,,0.00,70,Wunderground v.1.15,2013-06-27 05:20:00,
2013-06-27 07:30:00,60.6,49.6,30.17,WNW,295,0.0,1.0,67,0.00,,,0.00,97,Wunderground v.1.15,2013-06-27 05:30:00,
2013-06-27 07:45:00,61.9,51.2,30.16,WNW,296,0.0,1.0,68,0.00,,,0.00,139,Wunderground v.1.15,2013-06-27 05:45:00,
2013-06-27 07:55:00,63.0,52.3,30.16,WNW,296,0.0,0.0,68,0.00,,,0.00,167,Wunderground v.1.15,2013-06-27 05:55:00,
2013-06-27 08:06:00,64.1,53.3,30.17,WNW,296,0.0,0.0,68,0.00,,,0.00,195,Wunderground v.1.15,2013-06-27 06:06:00,
2013-06-27 08:20:00,65.8,54.5,30.17,WNW,296,0.0,0.0,67,0.00,,,0.00,246,Wunderground v.1.15,2013-06-27 06:20:00,
2013-06-27 08:26:00,66.5,54.8,30.17,WNW,296,0.0,0.0,66,0.00,,,0.00,264,Wunderground v.1.15,2013-06-27 06:26:00,
2013-06-27 08:36:00,67.5,55.3,30.17,WNW,296,0.0,0.0,65,0.00,,,0.00,294,Wunderground v.1.15,2013-06-27 06:36:00,
2013-06-27 08:45:00,68.8,56.1,30.17,WNW,296,0.0,2.0,64,0.00,,,0.00,329,Wunderground v.1.15,2013-06-27 06:45:00,
2013-06-27 09:05:00,71.2,55.7,30.17,ENE,74,2.0,2.0,58,0.00,,,0.00,396,Wunderground v.1.15,2013-06-27 07:05:00,
2013-06-27 09:11:00,71.4,55.4,30.17,East,82,3.0,5.0,57,0.00,,,0.00,403,Wunderground v.1.15,2013-06-27 07:11:00,
2013-06-27 09:20:00,71.8,55.3,30.17,East,86,2.0,2.0,56,0.00,,,0.00,436,Wunderground v.1.15,2013-06-27 07:20:00,
2013-06-27 09:25:00,72.0,55.4,30.17,NNE,33,2.0,2.0,56,0.00,,,0.00,461,Wunderground v.1.15,2013-06-27 07:25:00,
2013-06-27 09:35:00,72.7,55.6,30.17,ENE,75,2.0,3.0,55,0.00,,,0.00,485,Wunderground v.1.15,2013-06-27 07:35:00,
2013-06-27 09:50:00,73.7,56.0,30.17,North,9,2.0,2.0,54,0.00,,,0.00,520,Wunderground v.1.15,2013-06-27 07:50:00,
2013-06-27 10:05:00,74.7,55.4,30.17,East,93,2.0,2.0,51,0.00,,,0.00,571,Wunderground v.1.15,2013-06-27 08:05:00,
2013-06-27 10:10:00,74.7,54.8,30.17,East,88,3.0,6.0,50,0.00,,,0.00,589,Wunderground v.1.15,2013-06-27 08:10:00,
2013-06-27 10:21:00,74.6,54.2,30.17,ENE,71,4.0,4.0,49,0.00,,,0.00,615,Wunderground v.1.15,2013-06-27 08:21:00,
2013-06-27 10:30:00,75.0,54.5,30.17,East,94,3.0,3.0,49,0.00,,,0.00,650,Wunderground v.1.15,2013-06-27 08:30:00,
2013-06-27 10:41:00,75.1,55.2,30.17,ESE,113,4.0,4.0,50,0.00,,,0.00,671,Wunderground v.1.15,2013-06-27 08:41:00,
2013-06-27 10:50:00,75.0,54.5,30.17,East,80,5.0,5.0,49,0.00,,,0.00,694,Wunderground v.1.15,2013-06-27 08:50:00,
2013-06-27 11:05:00,75.5,54.4,30.17,East,98,4.0,9.0,48,0.00,,,0.00,740,Wunderground v.1.15,2013-06-27 09:05:00,
2013-06-27 11:15:00,75.1,54.1,30.17,East,90,6.0,6.0,48,0.00,,,0.00,766,Wunderground v.1.15,2013-06-27 09:15:00,
2013-06-27 11:25:00,75.8,54.1,30.17,ESE,106,4.0,4.0,47,0.00,,,0.00,789,Wunderground v.1.15,2013-06-27 09:25:00,
2013-06-27 11:35:00,75.9,54.2,30.17,East,101,4.0,5.0,47,0.00,,,0.00,812,Wunderground v.1.15,2013-06-27 09:35:00,
2013-06-27 11:45:00,76.9,53.9,30.17,East,98,3.0,6.0,45,0.00,,,0.00,838,Wunderground v.1.15,2013-06-27 09:45:00,
2013-06-27 11:56:00,76.8,53.2,30.16,SSE,157,5.0,5.0,44,0.00,,,0.00,854,Wunderground v.1.15,2013-06-27 09:56:00,
2013-06-27 12:05:00,76.8,53.2,30.16,ESE,105,5.0,5.0,44,0.00,,,0.00,877,Wunderground v.1.15,2013-06-27 10:05:00,
2013-06-27 12:10:00,77.1,52.9,30.16,ENE,67,4.0,5.0,43,0.00,,,0.00,884,Wunderground v.1.15,2013-06-27 10:10:00,
2013-06-27 12:21:00,76.9,52.7,30.17,SE,124,6.0,6.0,43,0.00,,,0.00,896,Wunderground v.1.15,2013-06-27 10:21:00,
2013-06-27 12:35:00,77.3,52.4,30.17,ESE,111,4.0,4.0,42,0.00,,,0.00,919,Wunderground v.1.15,2013-06-27 10:35:00,
2013-06-27 12:45:00,77.5,51.9,30.17,ESE,121,4.0,4.0,41,0.00,,,0.00,925,Wunderground v.1.15,2013-06-27 10:45:00,
2013-06-27 12:55:00,77.5,52.6,30.17,ESE,107,4.0,8.0,42,0.00,,,0.00,939,Wunderground v.1.15,2013-06-27 10:55:00,
2013-06-27 13:10:00,78.3,52.7,30.17,East,101,4.0,8.0,41,0.00,,,0.00,958,Wunderground v.1.15,2013-06-27 11:10:00,
2013-06-27 13:20:00,78.2,52.6,30.17,East,94,4.0,6.0,41,0.00,,,0.00,967,Wunderground v.1.15,2013-06-27 11:20:00,
2013-06-27 13:30:00,78.3,52.0,30.17,NE,55,5.0,5.0,40,0.00,,,0.00,960,Wunderground v.1.15,2013-06-27 11:30:00,
2013-06-27 13:45:00,78.7,52.3,30.16,North,360,3.0,3.0,40,0.00,,,0.00,962,Wunderground v.1.15,2013-06-27 11:45:00,
2013-06-27 13:56:00,78.7,52.3,30.16,ESE,118,5.0,9.0,40,0.00,,,0.00,965,Wunderground v.1.15,2013-06-27 11:56:00,
2013-06-27 14:05:00,78.7,51.7,30.16,ENE,69,4.0,5.0,39,0.00,,,0.00,963,Wunderground v.1.15,2013-06-27 12:05:00,
2013-06-27 14:11:00,78.6,52.3,30.16,NE,42,5.0,5.0,40,0.00,,,0.00,958,Wunderground v.1.15,2013-06-27 12:11:00,
2013-06-27 14:20:00,78.5,52.2,30.16,ESE,116,4.0,4.0,40,0.00,,,0.00,953,Wunderground v.1.15,2013-06-27 12:20:00,
2013-06-27 14:30:00,79.0,51.9,30.16,ESE,115,4.0,4.0,39,0.00,,,0.00,949,Wunderground v.1.15,2013-06-27 12:30:00,
2013-06-27 14:45:00,79.3,52.2,30.15,ENE,65,3.0,3.0,39,0.00,,,0.00,946,Wunderground v.1.15,2013-06-27 12:45:00,
2013-06-27 14:55:00,79.4,52.3,30.15,East,101,4.0,4.0,39,0.00,,,0.00,928,Wunderground v.1.15,2013-06-27 12:55:00,
2013-06-27 15:10:00,79.6,52.5,30.14,SE,138,5.0,5.0,39,0.00,,,0.00,921,Wunderground v.1.15,2013-06-27 13:10:00,
2013-06-27 15:25:00,79.3,52.2,30.14,NE,44,4.0,4.0,39,0.00,,,0.00,886,Wunderground v.1.15,2013-06-27 13:25:00,
2013-06-27 15:36:00,79.4,52.3,30.14,NNW,344,3.0,3.0,39,0.00,,,0.00,895,Wunderground v.1.15,2013-06-27 13:36:00,
2013-06-27 15:50:00,79.8,52.6,30.13,SE,141,3.0,3.0,39,0.00,,,0.00,846,Wunderground v.1.15,2013-06-27 13:50:00,
2013-06-27 15:55:00,79.8,53.3,30.13,SE,144,3.0,3.0,40,0.00,,,0.00,821,Wunderground v.1.15,2013-06-27 13:55:00,
2013-06-27 16:05:00,80.1,53.6,30.13,SE,141,3.0,7.0,40,0.00,,,0.00,817,Wunderground v.1.15,2013-06-27 14:05:00,
2013-06-27 16:20:00,79.9,53.4,30.13,ESE,107,4.0,4.0,40,0.00,,,0.00,779,Wunderground v.1.15,2013-06-27 14:20:00,
2013-06-27 16:26:00,79.9,52.7,30.12,SSE,156,3.0,4.0,39,0.00,,,0.00,773,Wunderground v.1.15,2013-06-27 14:26:00,
2013-06-27 16:36:00,79.9,53.4,30.12,SE,136,3.0,5.0,40,0.00,,,0.00,742,Wunderground v.1.15,2013-06-27 14:36:00,
2013-06-27 16:45:00,80.1,52.9,30.12,SE,124,4.0,5.0,39,0.00,,,0.00,721,Wunderground v.1.15,2013-06-27 14:45:00,
2013-06-27 16:50:00,79.9,53.4,30.12,SSW,198,3.0,5.0,40,0.00,,,0.00,701,Wunderground v.1.15,2013-06-27 14:50:00,
2013-06-27 17:05:00,79.7,53.9,30.11,SSE,156,3.0,3.0,41,0.00,,,0.00,684,Wunderground v.1.15,2013-06-27 15:05:00,
2013-06-27 17:15:00,79.7,53.9,30.11,SE,143,4.0,5.0,41,0.00,,,0.00,214,Wunderground v.1.15,2013-06-27 15:15:00,
2013-06-27 17:30:00,78.5,55.4,30.11,SE,140,3.0,5.0,45,0.00,,,0.00,292,Wunderground v.1.15,2013-06-27 15:30:00,
2013-06-27 17:41:00,78.3,56.4,30.11,SW,223,3.0,3.0,47,0.00,,,0.00,274,Wunderground v.1.15,2013-06-27 15:41:00,
2013-06-27 17:45:00,78.1,56.8,30.11,SSW,203,4.0,5.0,48,0.00,,,0.00,636,Wunderground v.1.15,2013-06-27 15:45:00,
2013-06-27 17:55:00,77.9,57.2,30.11,South,176,5.0,5.0,49,0.00,,,0.00,617,Wunderground v.1.15,2013-06-27 15:55:00,
2013-06-27 18:05:00,77.8,56.5,30.11,South,174,5.0,5.0,48,0.00,,,0.00,244,Wunderground v.1.15,2013-06-27 16:05:00,
2013-06-27 18:11:00,77.3,56.1,30.11,SSW,202,5.0,5.0,48,0.00,,,0.00,250,Wunderground v.1.15,2013-06-27 16:11:00,
2013-06-27 18:25:00,76.8,55.6,30.10,SW,229,4.0,4.0,48,0.00,,,0.00,468,Wunderground v.1.15,2013-06-27 16:25:00,
2013-06-27 18:35:00,77.0,55.8,30.11,South,178,3.0,3.0,48,0.00,,,0.00,420,Wunderground v.1.15,2013-06-27 16:35:00,
2013-06-27 18:46:00,76.7,56.1,30.10,SSW,211,5.0,7.0,49,0.00,,,0.00,383,Wunderground v.1.15,2013-06-27 16:46:00,
2013-06-27 18:55:00,76.0,56.0,30.10,SSW,195,5.0,7.0,50,0.00,,,0.00,350,Wunderground v.1.15,2013-06-27 16:55:00,
2013-06-27 19:05:00,75.4,56.0,30.10,South,186,4.0,4.0,51,0.00,,,0.00,315,Wunderground v.1.15,2013-06-27 17:05:00,
2013-06-27 19:20:00,74.8,56.0,30.10,SSW,205,3.0,4.0,52,0.00,,,0.00,258,Wunderground v.1.15,2013-06-27 17:20:00,
2013-06-27 19:30:00,74.4,56.2,30.11,South,169,4.0,4.0,53,0.00,,,0.00,225,Wunderground v.1.15,2013-06-27 17:30:00,
2013-06-27 19:45:00,73.7,56.5,30.11,South,182,3.0,3.0,55,0.00,,,0.00,186,Wunderground v.1.15,2013-06-27 17:45:00,
2013-06-27 19:55:00,73.3,56.2,30.11,SSW,207,4.0,4.0,55,0.00,,,0.00,151,Wunderground v.1.15,2013-06-27 17:55:00,
2013-06-27 20:10:00,72.6,56.0,30.11,SSW,202,4.0,5.0,56,0.00,,,0.00,130,Wunderground v.1.15,2013-06-27 18:10:00,
2013-06-27 20:26:00,71.8,56.2,30.11,South,182,3.0,3.0,58,0.00,,,0.00,84,Wunderground v.1.15,2013-06-27 18:26:00,
2013-06-27 20:40:00,71.0,55.9,30.11,South,188,3.0,3.0,59,0.00,,,0.00,35,Wunderground v.1.15,2013-06-27 18:40:00,
2013-06-27 20:55:00,70.3,56.2,30.11,WSW,237,2.0,3.0,61,0.00,,,0.00,21,Wunderground v.1.15,2013-06-27 18:55:00,
2013-06-27 21:10:00,69.7,55.6,30.11,WSW,256,2.0,2.0,61,0.00,,,0.00,9,Wunderground v.1.15,2013-06-27 19:10:00,
2013-06-27 21:21:00,69.4,55.8,30.11,SW,221,2.0,3.0,62,0.00,,,0.00,0,Wunderground v.1.15,2013-06-27 19:21:00,
2013-06-27 21:35:00,68.8,55.7,30.12,WSW,247,2.0,3.0,63,0.00,,,0.00,0,Wunderground v.1.15,2013-06-27 19:35:00,
2013-06-27 21:50:00,68.3,55.6,30.12,SW,223,3.0,3.0,64,0.00,,,0.00,0,Wunderground v.1.15,2013-06-27 19:50:00,
2013-06-27 22:05:00,67.9,55.7,30.13,SW,223,2.0,2.0,65,0.00,,,0.00,0,Wunderground v.1.15,2013-06-27 20:05:00,
2013-06-27 22:16:00,67.6,55.8,30.13,SW,223,2.0,2.0,66,0.00,,,0.00,0,Wunderground v.1.15,2013-06-27 20:16:00,
2013-06-27 22:25:00,67.2,55.5,30.13,SW,223,1.0,1.0,66,0.00,,,0.00,0,Wunderground v.1.15,2013-06-27 20:25:00,
2013-06-27 22:35:00,66.9,55.6,30.14,SW,223,1.0,1.0,67,0.00,,,0.00,0,Wunderground v.1.15,2013-06-27 20:35:00,
2013-06-27 22:50:00,66.5,55.6,30.14,SW,223,0.0,0.0,68,0.00,,,0.00,0,Wunderground v.1.15,2013-06-27 20:50:00,
2013-06-27 23:05:00,66.3,55.8,30.15,SW,223,0.0,1.0,69,0.00,,,0.00,0,Wunderground v.1.15,2013-06-27 21:05:00,
2013-06-27 23:20:00,66.0,55.5,30.15,SW,223,0.0,1.0,69,0.00,,,0.00,0,Wunderground v.1.15,2013-06-27 21:20:00,
2013-06-27 23:30:00,65.9,55.4,30.15,SW,223,0.0,1.0,69,0.00,,,0.00,0,Wunderground v.1.15,2013-06-27 21:30:00,
2013-06-27 23:45:00,65.6,55.5,30.15,SW,223,0.0,0.0,70,0.00,,,0.00,0,Wunderground v.1.15,2013-06-27 21:45:00,